Brunswick Golden Isles Airport
KBQK : now visible

Airfield :











YOU CAN JOIN US ON...

 
LOGIN :

Register | Disclaimer

   EN    FR    IT 

 









Legend :    VFR   Marginal VFR   IFR   Intensive IFR   Very Intensive IFR
Visi :
Ceiling :
>= 8 km
>= 3000ft
5 to 8 km
1000 to 3000 ft
1500m to 5 km
500 to 1000 ft
800 to 1500m
200 to 500 ft
< 800m
< 200 ft
Symbols :   Thunderstorms  Fog  Heavy snow  Heavy precipitations  Wind > 20 kt






- Airport Elevation : 26 ft
- IATA code : BQK


KBQK - Brunswick Golden Isles

CURRENT METAR :
  • 171815Z AUTO 32007KT 290V350 10SM OVC024 14/08 A2992 RMK AO2 T01410080

EXPIRED METARs :
  • 171755Z AUTO 33008KT 310V020 10SM OVC024 14/08 A2993 RMK AO2 T01360076 10137 20082
  • 171735Z AUTO 32008KT 270V350 10SM OVC024 13/07 A2993 RMK AO2 T01290071
  • 171715Z AUTO 34007KT 10SM OVC022 12/07 A2996 RMK AO2 T01250070
  • 171655Z AUTO 32007KT 10SM OVC022 12/07 A2997 RMK AO2 T01240070
  • 171635Z AUTO 32009KT 10SM OVC022 12/06 A2998 RMK AO2 T01160062
  • 171615Z AUTO 32008KT 10SM OVC022 11/06 A2998 RMK AO2 T01130063
  • 171555Z AUTO 35008KT 10SM OVC020 11/06 A2999 RMK AO2 T01070058
  • 171535Z AUTO 34009KT 10SM OVC020 10/06 A2999 RMK AO2 T01020057

TAF N/A



MET'MAP, your aeronautical weather chart ! - Copyright ORBIFLY December 2007 - Disclaimer

ORBIFLY MET'MAP TEAM :

Programming & Development : Alexandra Zaïnal
Concept & Development : Baudouin d'Aumeries
Co-Development & Prog : Marc-Olivier Méhu
Technical & hardware support : Manuel Goepfert

Contact : metmap@orbifly.com




SOURCES & CREDITS :

   NOAA       Earth
Advisory